createdAt,value
2019-04-05T00:00:00.055Z,4.59
2019-04-05T00:03:13.644Z,4.57
2019-04-05T00:06:27.152Z,4.57
2019-04-05T00:09:41.179Z,4.55
2019-04-05T00:12:55.244Z,4.58
2019-04-05T00:16:08.824Z,4.59
2019-04-05T00:19:22.387Z,4.61
2019-04-05T00:22:36.368Z,4.61
2019-04-05T00:25:49.946Z,4.59
2019-04-05T00:29:03.517Z,4.60
2019-04-05T00:32:16.968Z,4.60
2019-04-05T00:35:30.454Z,4.53
2019-04-05T00:38:44.016Z,4.53
2019-04-05T00:41:57.768Z,4.46
2019-04-05T00:45:11.827Z,4.39
2019-04-05T00:48:25.271Z,4.29
2019-04-05T00:51:38.740Z,4.37
2019-04-05T00:54:52.496Z,4.43
2019-04-05T00:58:06.403Z,4.46
2019-04-05T01:01:20.078Z,4.45
2019-04-05T01:04:33.551Z,4.49
2019-04-05T01:07:47.531Z,4.54
2019-04-05T01:11:01.444Z,4.56
2019-04-05T01:14:15.659Z,4.47
2019-04-05T01:17:29.335Z,4.50
2019-04-05T01:20:47.176Z,4.49
2019-04-05T01:24:01.250Z,4.48
2019-04-05T01:27:14.925Z,4.45
2019-04-05T01:30:28.588Z,4.50
2019-04-05T01:33:42.140Z,4.51
2019-04-05T01:36:56.197Z,4.51
2019-04-05T01:40:09.963Z,4.52
2019-04-05T01:43:23.655Z,4.55
2019-04-05T01:46:37.219Z,4.55
2019-04-05T01:49:50.875Z,4.62
2019-04-05T01:53:04.547Z,4.68
2019-04-05T01:56:18.241Z,4.73
2019-04-05T01:59:31.979Z,4.77
2019-04-05T02:02:45.874Z,4.78
2019-04-05T02:05:59.508Z,4.79
2019-04-05T02:09:13.207Z,4.80
2019-04-05T02:12:26.907Z,4.77
2019-04-05T02:15:40.598Z,4.75
2019-04-05T02:18:54.188Z,4.74
2019-04-05T02:22:08.175Z,4.77
2019-04-05T02:25:22.115Z,4.72
2019-04-05T02:28:35.971Z,4.74
2019-04-05T02:31:49.811Z,4.77
2019-04-05T02:35:03.734Z,4.76
2019-04-05T02:38:17.440Z,4.57
2019-04-05T02:41:31.539Z,4.56
2019-04-05T02:44:46.253Z,4.56
2019-04-05T02:48:03.708Z,4.50
2019-04-05T02:51:21.227Z,4.50
2019-04-05T02:54:35.115Z,4.55
2019-04-05T02:57:49.602Z,4.61
2019-04-05T03:01:03.310Z,4.69
2019-04-05T03:04:16.881Z,4.71
2019-04-05T03:07:30.792Z,4.76
2019-04-05T03:11:11.762Z,4.82
2019-04-05T03:14:26.347Z,4.90
2019-04-05T03:17:40.762Z,4.96
2019-04-05T03:20:58.431Z,5.01
2019-04-05T03:24:16.452Z,5.05
2019-04-05T03:27:33.757Z,5.07
2019-04-05T03:30:47.827Z,5.09
2019-04-05T03:34:01.752Z,5.13
2019-04-05T03:37:16.028Z,5.16
2019-04-05T03:40:30.006Z,5.13
2019-04-05T03:43:44.109Z,5.13
2019-04-05T03:46:58.299Z,5.15
2019-04-05T03:50:11.954Z,5.17
2019-04-05T03:53:26.045Z,5.18
2019-04-05T03:56:39.929Z,5.19
2019-04-05T03:59:54.124Z,5.17
2019-04-05T04:03:07.914Z,5.18
2019-04-05T04:06:22.320Z,5.16
2019-04-05T04:09:36.320Z,5.14
2019-04-05T04:12:50.345Z,5.13
2019-04-05T04:16:04.205Z,5.01
2019-04-05T04:19:18.117Z,5.04
2019-04-05T04:22:31.912Z,4.97
2019-04-05T04:25:46.075Z,4.89
2019-04-05T04:28:59.955Z,5.00
2019-04-05T04:32:13.967Z,5.09
2019-04-05T04:35:28.104Z,5.16
2019-04-05T04:38:41.899Z,5.21
2019-04-05T04:41:55.578Z,5.26
2019-04-05T04:45:12.596Z,5.29
2019-04-05T04:48:26.368Z,5.32
2019-04-05T04:51:40.531Z,5.35
2019-04-05T04:54:54.532Z,5.38
2019-04-05T04:58:08.565Z,5.39
2019-04-05T05:01:22.607Z,5.38
2019-04-05T05:04:36.678Z,5.40
2019-04-05T05:07:50.999Z,5.39
2019-04-05T05:11:14.318Z,5.39
2019-04-05T05:14:21.008Z,5.41
2019-04-05T05:17:38.865Z,5.38
2019-04-05T05:20:50.945Z,5.37
2019-04-05T05:24:04.835Z,5.37
2019-04-05T05:27:18.899Z,5.38
2019-04-05T05:30:33.021Z,5.33
2019-04-05T05:33:46.914Z,5.31
2019-04-05T05:37:01.162Z,5.30
2019-04-05T05:40:15.358Z,5.31
2019-04-05T05:43:29.061Z,5.35
2019-04-05T05:46:43.323Z,5.41
2019-04-05T05:49:56.877Z,5.41
2019-04-05T05:53:10.603Z,5.38
2019-04-05T05:56:24.084Z,5.40
2019-04-05T05:59:38.102Z,5.42
2019-04-05T06:02:51.619Z,5.43
2019-04-05T06:06:05.576Z,5.47
2019-04-05T06:09:19.091Z,5.38
2019-04-05T06:12:32.683Z,5.24
2019-04-05T06:15:46.312Z,5.25
2019-04-05T06:19:01.198Z,5.39
2019-04-05T06:22:17.544Z,5.47
2019-04-05T06:25:32.800Z,5.52
2019-04-05T06:28:48.002Z,5.62
2019-04-05T06:32:03.246Z,5.65
2019-04-05T06:35:18.251Z,5.70
2019-04-05T06:38:31.832Z,5.79
2019-04-05T06:41:45.437Z,5.81
2019-04-05T06:44:58.922Z,5.75
2019-04-05T06:48:19.071Z,5.83
2019-04-05T06:51:28.551Z,5.99
2019-04-05T06:54:42.487Z,6.10
2019-04-05T06:57:56.463Z,6.23
2019-04-05T07:01:09.949Z,6.35
2019-04-05T07:04:23.892Z,6.42
2019-04-05T07:07:37.617Z,6.50
2019-04-05T07:10:51.358Z,6.58
2019-04-05T07:14:05.304Z,6.63
2019-04-05T07:17:18.888Z,6.64
2019-04-05T07:20:32.501Z,6.80
2019-04-05T07:23:46.237Z,6.91
2019-04-05T07:26:59.837Z,7.09
2019-04-05T07:30:13.942Z,7.20
2019-04-05T07:33:27.779Z,7.18
2019-04-05T07:36:41.277Z,7.27
2019-04-05T07:39:55.034Z,7.38
2019-04-05T07:43:08.761Z,7.62
2019-04-05T07:46:22.279Z,7.75
2019-04-05T07:49:35.782Z,7.86
2019-04-05T07:52:49.376Z,7.90
2019-04-05T07:56:03.105Z,8.03
2019-04-05T07:59:16.712Z,8.13
2019-04-05T08:02:30.646Z,8.20
2019-04-05T08:05:44.712Z,8.37
2019-04-05T08:09:06.661Z,8.58
2019-04-05T08:12:20.603Z,8.62
2019-04-05T08:15:34.630Z,8.49
2019-04-05T08:18:57.648Z,8.53
2019-04-05T08:22:04.080Z,8.28
2019-04-05T08:25:17.616Z,8.35
2019-04-05T08:28:31.671Z,8.59
2019-04-05T08:31:45.294Z,8.82
2019-04-05T08:34:59.063Z,9.05
2019-04-05T08:38:12.897Z,9.14
2019-04-05T08:41:26.414Z,9.21
2019-04-05T08:44:40.023Z,9.40
2019-04-05T08:47:53.738Z,9.56
2019-04-05T08:51:07.497Z,9.76
2019-04-05T08:54:32.005Z,9.86
2019-04-05T08:57:36.516Z,9.94
2019-04-05T09:00:50.123Z,9.96
2019-04-05T09:04:03.883Z,10.08
2019-04-05T09:07:17.723Z,10.16
2019-04-05T09:10:31.217Z,10.06
2019-04-05T09:13:44.807Z,10.12
2019-04-05T09:16:58.304Z,10.41
2019-04-05T09:20:11.913Z,10.57
2019-04-05T09:23:25.921Z,10.59
2019-04-05T09:26:39.664Z,10.57
2019-04-05T09:29:53.269Z,10.58
2019-04-05T09:33:07.011Z,10.56
2019-04-05T09:36:20.500Z,10.69
2019-04-05T09:39:34.005Z,10.76
2019-04-05T09:42:47.504Z,10.74
2019-04-05T09:46:01.188Z,10.76
2019-04-05T09:49:14.769Z,10.60
2019-04-05T09:52:28.537Z,10.67
2019-04-05T09:55:42.175Z,10.87
2019-04-05T09:58:55.919Z,11.07
2019-04-05T10:02:09.652Z,11.11
2019-04-05T10:05:23.241Z,10.47
2019-04-05T10:08:37.206Z,10.66
2019-04-05T10:11:50.817Z,10.91
2019-04-05T10:15:04.660Z,10.40
2019-04-05T10:18:18.264Z,10.44
2019-04-05T10:21:31.770Z,10.51
2019-04-05T10:24:45.519Z,10.33
2019-04-05T10:27:59.008Z,10.19
2019-04-05T10:31:12.521Z,10.25
2019-04-05T10:34:25.994Z,10.32
2019-04-05T10:37:39.610Z,10.32
2019-04-05T10:40:53.299Z,10.52
2019-04-05T10:44:09.518Z,10.71
2019-04-05T10:47:23.430Z,10.81
2019-04-05T10:50:37.482Z,10.95
2019-04-05T10:53:50.960Z,10.78
2019-04-05T10:57:04.689Z,10.64
2019-04-05T11:00:19.316Z,10.59
2019-04-05T11:03:33.331Z,10.57
2019-04-05T11:06:47.117Z,10.37
2019-04-05T11:10:01.070Z,10.22
2019-04-05T11:13:14.590Z,10.06
2019-04-05T11:16:28.198Z,9.95
2019-04-05T11:19:41.712Z,9.94
2019-04-05T11:22:55.566Z,9.92
2019-04-05T11:26:09.485Z,10.00
2019-04-05T11:29:23.062Z,9.97
2019-04-05T11:32:37.072Z,10.06
2019-04-05T11:35:50.808Z,10.01
2019-04-05T11:39:06.030Z,9.76
2019-04-05T11:42:21.698Z,9.72
2019-04-05T11:45:35.737Z,9.81
2019-04-05T11:48:49.986Z,9.75
2019-04-05T11:52:03.978Z,9.77
2019-04-05T11:55:18.521Z,9.79
2019-04-05T11:58:32.480Z,9.78
2019-04-05T12:01:55.592Z,9.75
2019-04-05T12:05:10.432Z,9.78
2019-04-05T12:08:24.057Z,9.86
2019-04-05T12:11:37.805Z,10.08
2019-04-05T12:14:51.547Z,10.19
2019-04-05T12:18:05.379Z,9.97
2019-04-05T12:21:20.866Z,9.72
2019-04-05T12:24:34.372Z,9.72
2019-04-05T12:27:48.492Z,9.77
2019-04-05T12:31:02.509Z,9.68
2019-04-05T12:34:16.135Z,9.58
2019-04-05T12:37:29.772Z,9.60
2019-04-05T12:40:44.227Z,9.69
2019-04-05T12:43:57.915Z,9.69
2019-04-05T12:47:13.941Z,9.65
2019-04-05T12:50:27.088Z,9.74
2019-04-05T12:53:40.603Z,9.66
2019-04-05T12:56:57.657Z,9.45
2019-04-05T13:00:13.329Z,9.33
2019-04-05T13:03:27.118Z,9.23
2019-04-05T13:06:42.270Z,9.16
2019-04-05T13:09:56.058Z,9.14
2019-04-05T13:13:09.868Z,9.02
2019-04-05T13:16:23.392Z,9.15
2019-04-05T13:19:37.116Z,9.16
2019-04-05T13:22:51.443Z,9.29
2019-04-05T13:26:05.211Z,9.26
2019-04-05T13:29:19.764Z,9.25
2019-04-05T13:32:33.926Z,9.10
2019-04-05T13:35:47.383Z,9.09
2019-04-05T13:39:00.903Z,9.15
2019-04-05T13:42:14.881Z,9.22
2019-04-05T13:45:28.823Z,9.22
2019-04-05T13:48:42.660Z,9.17
2019-04-05T13:51:56.240Z,9.16
2019-04-05T13:55:11.338Z,9.12
2019-04-05T13:58:25.234Z,9.13
2019-04-05T14:01:38.750Z,9.21
2019-04-05T14:04:53.954Z,9.11
2019-04-05T14:08:11.138Z,9.08
2019-04-05T14:11:25.924Z,9.02
2019-04-05T14:14:39.445Z,9.12
2019-04-05T14:17:54.548Z,9.18
2019-04-05T14:21:08.264Z,9.26
2019-04-05T14:24:23.439Z,9.25
2019-04-05T14:27:38.026Z,9.32
2019-04-05T14:30:51.855Z,9.25
2019-04-05T14:34:05.590Z,9.17
2019-04-05T14:37:22.147Z,9.27
2019-04-05T14:40:34.956Z,9.39
2019-04-05T14:43:48.452Z,9.44
2019-04-05T14:47:02.142Z,9.41
2019-04-05T14:50:16.287Z,9.47
2019-04-05T14:53:32.318Z,9.50
2019-04-05T14:56:45.197Z,9.55
2019-04-05T14:59:58.808Z,9.58
2019-04-05T15:03:12.383Z,9.52
2019-04-05T15:06:26.805Z,9.38
2019-04-05T15:09:40.735Z,9.35
2019-04-05T15:12:54.494Z,9.33
2019-04-05T15:16:08.417Z,9.37
2019-04-05T15:19:21.918Z,9.37
2019-04-05T15:22:35.503Z,9.44
2019-04-05T15:25:49.907Z,9.45
2019-04-05T15:29:04.375Z,9.43
2019-04-05T15:32:19.361Z,9.45
2019-04-05T15:35:33.305Z,9.39
2019-04-05T15:38:47.052Z,9.31
2019-04-05T15:42:00.575Z,9.23
2019-04-05T15:45:16.095Z,9.17
2019-04-05T15:48:30.913Z,9.14
2019-04-05T15:51:44.911Z,9.12
2019-04-05T15:54:58.656Z,9.17
2019-04-05T15:58:12.434Z,9.20
2019-04-05T16:01:26.536Z,9.14
2019-04-05T16:04:40.241Z,9.05
2019-04-05T16:07:53.747Z,9.05
2019-04-05T16:11:08.079Z,9.05
2019-04-05T16:14:21.785Z,9.04
2019-04-05T16:17:35.392Z,9.01
2019-04-05T16:20:49.112Z,9.05
2019-04-05T16:24:02.971Z,9.04
2019-04-05T16:27:16.509Z,9.04
2019-04-05T16:30:30.129Z,9.02
2019-04-05T16:33:43.960Z,9.04
2019-04-05T16:36:57.520Z,9.01
2019-04-05T16:40:11.694Z,9.02
2019-04-05T16:43:25.343Z,9.01
2019-04-05T16:46:38.975Z,8.94
2019-04-05T16:49:52.901Z,8.93
2019-04-05T16:53:06.361Z,8.91
2019-04-05T16:56:20.320Z,8.85
2019-04-05T16:59:33.938Z,8.83
2019-04-05T17:02:47.446Z,8.83
2019-04-05T17:06:00.972Z,8.85
2019-04-05T17:09:14.725Z,8.88
2019-04-05T17:12:28.340Z,8.87
2019-04-05T17:15:41.848Z,8.87
2019-04-05T17:18:55.478Z,8.84
2019-04-05T17:22:09.197Z,8.85
2019-04-05T17:25:22.925Z,8.87
2019-04-05T17:28:36.533Z,8.81
2019-04-05T17:31:50.423Z,8.84
2019-04-05T17:35:07.288Z,8.74
2019-04-05T17:38:21.222Z,8.72
2019-04-05T17:41:34.999Z,8.69
2019-04-05T17:44:48.616Z,8.67
2019-04-05T17:48:02.232Z,8.63
2019-04-05T17:51:15.870Z,8.56
2019-04-05T17:54:29.683Z,8.43
2019-04-05T17:57:43.304Z,8.42
2019-04-05T18:00:56.914Z,8.47
2019-04-05T18:04:12.327Z,8.49
2019-04-05T18:07:26.085Z,8.34
2019-04-05T18:10:39.811Z,8.26
2019-04-05T18:13:53.595Z,8.30
2019-04-05T18:17:07.105Z,8.34
2019-04-05T18:20:20.612Z,8.37
2019-04-05T18:23:34.376Z,8.40
2019-04-05T18:26:48.369Z,8.38
2019-04-05T18:30:02.223Z,8.38
2019-04-05T18:33:16.155Z,8.41
2019-04-05T18:36:30.368Z,8.38
2019-04-05T18:39:44.012Z,8.40
2019-04-05T18:42:57.761Z,8.37
2019-04-05T18:46:11.851Z,8.35
2019-04-05T18:49:25.789Z,8.33
2019-04-05T18:52:39.679Z,8.37
2019-04-05T18:55:53.232Z,8.39
2019-04-05T18:59:06.972Z,8.40
2019-04-05T19:02:20.701Z,8.33
2019-04-05T19:05:34.676Z,8.35
2019-04-05T19:08:48.275Z,8.36
2019-04-05T19:12:01.910Z,8.35
2019-04-05T19:15:15.856Z,8.30
2019-04-05T19:18:30.194Z,8.26
2019-04-05T19:21:43.884Z,8.28
2019-04-05T19:24:57.380Z,8.29
2019-04-05T19:28:11.279Z,8.31
2019-04-05T19:50:58.234Z,8.21
2019-04-05T19:54:11.866Z,8.27
2019-04-05T19:57:26.267Z,8.29
2019-04-05T20:00:40.202Z,8.28
2019-04-05T20:03:54.038Z,8.33
2019-04-05T20:07:07.983Z,8.37
2019-04-05T20:10:21.681Z,8.41
2019-04-05T20:13:35.229Z,8.41
2019-04-05T20:20:19.432Z,8.48
2019-04-05T20:23:32.965Z,8.38
2019-04-05T20:26:46.579Z,8.36
2019-04-05T20:30:00.615Z,8.35
2019-04-05T20:33:14.299Z,8.35
2019-04-05T20:36:28.103Z,8.31
2019-04-05T20:39:41.809Z,8.32
2019-04-05T20:42:55.686Z,8.28
2019-04-05T20:46:11.656Z,8.29
2019-04-05T20:49:25.233Z,8.31
2019-04-05T20:52:39.087Z,8.30
2019-04-05T20:55:52.986Z,8.29
2019-04-05T20:59:07.159Z,8.29
2019-04-05T21:02:20.762Z,8.31
2019-04-05T21:05:34.444Z,8.31
2019-04-05T21:08:48.257Z,8.27
2019-04-05T21:12:01.922Z,8.23
2019-04-05T21:15:15.497Z,8.25
2019-04-05T21:18:30.313Z,8.26
2019-04-05T21:21:43.982Z,8.26
2019-04-05T21:24:57.595Z,8.23
2019-04-05T21:28:11.213Z,8.18
2019-04-05T21:31:25.668Z,8.16
2019-04-05T21:34:39.583Z,8.15
2019-04-05T21:37:53.228Z,8.14
2019-04-05T21:41:06.852Z,8.14
2019-04-05T21:44:20.379Z,8.11
2019-04-05T21:47:34.491Z,8.10
2019-04-05T21:50:48.398Z,8.01
2019-04-05T21:54:02.058Z,7.91
2019-04-05T21:57:15.830Z,7.91
2019-04-05T22:00:40.000Z,7.94
2019-04-05T22:03:54.205Z,7.95
2019-04-05T22:07:07.924Z,7.94
2019-04-05T22:10:21.465Z,7.95
2019-04-05T22:13:35.230Z,7.95
2019-04-05T22:16:48.894Z,7.90
2019-04-05T22:20:03.494Z,7.88
2019-04-05T22:23:16.982Z,7.85
2019-04-05T22:26:30.484Z,7.84
2019-04-05T22:29:44.249Z,7.83
2019-04-05T22:32:58.082Z,7.84
2019-04-05T22:36:12.024Z,7.82
2019-04-05T22:39:25.631Z,7.75
2019-04-05T22:42:39.125Z,7.79
2019-04-05T22:45:52.926Z,7.76
2019-04-05T22:49:06.736Z,7.75
2019-04-05T22:52:20.408Z,7.73
2019-04-05T22:55:34.274Z,7.74
2019-04-05T22:58:47.879Z,7.66
2019-04-05T23:02:02.960Z,7.68
2019-04-05T23:05:16.778Z,7.67
2019-04-05T23:08:30.287Z,7.68
2019-04-05T23:11:43.790Z,7.65
2019-04-05T23:14:57.296Z,7.66
2019-04-05T23:18:11.216Z,7.69
2019-04-05T23:21:24.785Z,7.71
2019-04-05T23:24:38.460Z,7.74
2019-04-05T23:27:52.035Z,7.78
2019-04-05T23:31:05.988Z,7.79
2019-04-05T23:34:19.469Z,7.82
2019-04-05T23:37:33.395Z,7.84
2019-04-05T23:40:47.326Z,7.85
2019-04-05T23:44:01.156Z,7.88
2019-04-05T23:47:14.855Z,7.88
2019-04-05T23:50:28.472Z,7.88
2019-04-05T23:53:42.113Z,7.82
2019-04-05T23:56:55.788Z,7.79
